Osburn, Idaho
Current Conditions -  °F | °C
As of 3:08 PM on Thursday 18 Dec 2014 (Local Time) from KMLP Reporting Station
Haze Haze  
Wind Chill: 24°   Ceiling: 200
Heat Index: 29°   Visibility: 0.75mi
Dew Point: 27°   Wind: 5mph
Humidity: 92%   Direction: NA
Pressure: 29.92"   Gusts: NA
Location:  47.51°N, 116°W
Report Text: KMLP 182308Z AUTO VRB04KT 3/4SM BR VV002 M02/M03 A2992 RMK AO2 T10171028
Loading
Personal Weather Stations






























Interactive Weather Map New forecast layout! Learn more

10-Day Weather Forecast

Advertisements
Track Severe Weather on mobile